createdAt,value
2022-11-25T00:00:14.073Z,98955.00
2022-11-25T00:01:47.330Z,98963.00
2022-11-25T00:03:21.072Z,98965.00
2022-11-25T00:04:54.265Z,98953.00
2022-11-25T00:06:29.624Z,98952.00
2022-11-25T00:08:02.825Z,98957.00
2022-11-25T00:09:35.919Z,98961.00
2022-11-25T00:11:10.380Z,98954.00
2022-11-25T00:12:43.661Z,98946.00
2022-11-25T00:14:17.136Z,98943.00
2022-11-25T00:15:49.348Z,98933.00
2022-11-25T00:17:22.606Z,98935.00
2022-11-25T00:19:00.423Z,98935.00
2022-11-25T00:20:33.575Z,98930.00
2022-11-25T00:22:06.621Z,98933.00
2022-11-25T00:23:40.141Z,98928.00
2022-11-25T00:25:13.544Z,98938.00
2022-11-25T00:26:46.813Z,98932.00
2022-11-25T00:28:19.030Z,98929.00
2022-11-25T00:29:52.186Z,98934.00
2022-11-25T00:31:28.772Z,98929.00
2022-11-25T00:33:00.961Z,98920.00
2022-11-25T00:34:35.664Z,98927.00
2022-11-25T00:36:17.541Z,98932.00
2022-11-25T00:37:51.720Z,98925.00
2022-11-25T00:39:26.974Z,98927.00
2022-11-25T00:41:14.191Z,98924.00
2022-11-25T00:43:05.054Z,98919.00
2022-11-25T00:44:40.217Z,98935.00
2022-11-25T00:46:13.051Z,98923.00
2022-11-25T00:47:46.332Z,98926.00
2022-11-25T00:49:18.638Z,98918.00
2022-11-25T00:50:53.849Z,98913.00
2022-11-25T00:52:28.271Z,98928.00
2022-11-25T00:54:00.508Z,98927.00
2022-11-25T00:55:54.724Z,98933.00
2022-11-25T00:57:27.867Z,98925.00
2022-11-25T00:59:01.030Z,98927.00
2022-11-25T01:00:34.145Z,98936.00
2022-11-25T01:02:08.312Z,98936.00
2022-11-25T01:03:41.621Z,98936.00
2022-11-25T01:05:15.005Z,98943.00
2022-11-25T01:06:49.607Z,98943.00
2022-11-25T01:08:22.796Z,98932.00
2022-11-25T01:09:55.919Z,98945.00
2022-11-25T01:11:30.169Z,98932.00
2022-11-25T01:13:03.296Z,98933.00
2022-11-25T01:14:37.395Z,98934.00
2022-11-25T01:16:14.433Z,98928.00
2022-11-25T01:17:47.638Z,98915.00
2022-11-25T01:19:21.295Z,98922.00
2022-11-25T01:20:54.463Z,98928.00
2022-11-25T01:22:29.042Z,98935.00
2022-11-25T01:24:04.396Z,98927.00
2022-11-25T01:25:39.537Z,98917.00
2022-11-25T01:27:12.769Z,98936.00
2022-11-25T01:28:45.193Z,98929.00
2022-11-25T01:30:18.636Z,98934.00
2022-11-25T01:31:55.306Z,98924.00
2022-11-25T01:33:27.695Z,98931.00
2022-11-25T01:35:00.829Z,98924.00
2022-11-25T01:36:34.660Z,98912.00
2022-11-25T01:38:10.611Z,98920.00
2022-11-25T01:39:43.741Z,98921.00
2022-11-25T01:41:16.955Z,98924.00
2022-11-25T01:42:50.576Z,98919.00
2022-11-25T01:44:29.811Z,98923.00
2022-11-25T01:46:13.496Z,98924.00
2022-11-25T01:47:46.833Z,98914.00
2022-11-25T01:49:28.718Z,98910.00
2022-11-25T01:51:02.087Z,98923.00
2022-11-25T01:52:39.949Z,98923.00
2022-11-25T01:54:21.543Z,98925.00
2022-11-25T01:56:01.375Z,98924.00
2022-11-25T01:57:41.478Z,98922.00
2022-11-25T01:59:14.288Z,98914.00
2022-11-25T02:00:51.522Z,98915.00
2022-11-25T02:02:25.550Z,98915.00
2022-11-25T02:04:00.073Z,98920.00
2022-11-25T02:05:43.408Z,98925.00
2022-11-25T02:07:25.109Z,98911.00
2022-11-25T02:09:04.881Z,98911.00
2022-11-25T02:10:40.680Z,98911.00
2022-11-25T02:12:17.431Z,98906.00
2022-11-25T02:13:52.686Z,98905.00
2022-11-25T02:15:26.544Z,98909.00
2022-11-25T02:17:01.355Z,98903.00
2022-11-25T02:18:35.011Z,98918.00
2022-11-25T02:20:11.614Z,98918.00
2022-11-25T02:21:53.255Z,98914.00
2022-11-25T02:23:37.761Z,98915.00
2022-11-25T02:25:17.429Z,98910.00
2022-11-25T02:26:50.645Z,98904.00
2022-11-25T02:28:26.195Z,98901.00
2022-11-25T02:29:59.480Z,98899.00
2022-11-25T02:31:32.722Z,98907.00
2022-11-25T02:33:07.383Z,98914.00
2022-11-25T02:34:48.709Z,98907.00
2022-11-25T02:36:24.858Z,98915.00
2022-11-25T02:38:08.812Z,98907.00
2022-11-25T02:39:43.351Z,98911.00
2022-11-25T02:41:22.277Z,98911.00
2022-11-25T02:43:01.058Z,98908.00
2022-11-25T02:44:34.756Z,98898.00
2022-11-25T02:46:16.159Z,98896.00
2022-11-25T02:47:52.171Z,98906.00
2022-11-25T02:49:25.413Z,98901.00
2022-11-25T02:50:57.944Z,98893.00
2022-11-25T02:52:31.067Z,98905.00
2022-11-25T02:54:04.637Z,98897.00
2022-11-25T02:55:36.826Z,98890.00
2022-11-25T02:57:11.479Z,98882.00
2022-11-25T02:58:44.651Z,98891.00
2022-11-25T03:00:18.862Z,98889.00
2022-11-25T03:01:52.112Z,98882.00
2022-11-25T03:03:24.567Z,98889.00
2022-11-25T03:04:57.766Z,98876.00
2022-11-25T03:06:31.906Z,98876.00
2022-11-25T03:08:05.921Z,98868.00
2022-11-25T03:09:43.477Z,98857.00
2022-11-25T03:11:18.741Z,98862.00
2022-11-25T03:12:52.508Z,98866.00
2022-11-25T03:14:26.631Z,98862.00
2022-11-25T03:15:59.828Z,98867.00
2022-11-25T03:17:33.489Z,98867.00
2022-11-25T03:19:06.758Z,98859.00
2022-11-25T03:20:40.253Z,98865.00
2022-11-25T03:22:12.631Z,98864.00
2022-11-25T03:23:46.004Z,98868.00
2022-11-25T03:25:20.470Z,98863.00
2022-11-25T03:26:56.167Z,98872.00
2022-11-25T03:28:30.766Z,98872.00
2022-11-25T03:30:09.343Z,98870.00
2022-11-25T03:31:42.653Z,98866.00
2022-11-25T03:33:17.484Z,98860.00
2022-11-25T03:34:52.382Z,98867.00
2022-11-25T03:36:25.568Z,98867.00
2022-11-25T03:37:58.803Z,98874.00
2022-11-25T03:39:32.125Z,98865.00
2022-11-25T03:41:05.776Z,98874.00
2022-11-25T03:42:39.516Z,98882.00
2022-11-25T03:44:15.028Z,98882.00
2022-11-25T03:45:49.912Z,98883.00
2022-11-25T03:47:24.057Z,98878.00
2022-11-25T03:48:57.665Z,98881.00
2022-11-25T03:50:30.782Z,98886.00
2022-11-25T03:52:05.084Z,98873.00
2022-11-25T03:53:38.227Z,98885.00
2022-11-25T03:55:13.991Z,98886.00
2022-11-25T03:56:50.639Z,98878.00
2022-11-25T03:58:23.960Z,98887.00
2022-11-25T03:59:59.145Z,98887.00
2022-11-25T04:01:32.671Z,98882.00
2022-11-25T04:03:06.165Z,98878.00
2022-11-25T04:04:39.745Z,98877.00
2022-11-25T04:06:15.852Z,98879.00
2022-11-25T04:07:52.335Z,98884.00
2022-11-25T04:09:29.576Z,98874.00
2022-11-25T04:11:05.617Z,98875.00
2022-11-25T04:12:49.557Z,98873.00
2022-11-25T04:14:26.802Z,98868.00
2022-11-25T04:16:01.512Z,98886.00
2022-11-25T04:17:34.901Z,98885.00
2022-11-25T04:19:08.566Z,98883.00
2022-11-25T04:20:42.405Z,98885.00
2022-11-25T04:22:14.617Z,98889.00
2022-11-25T04:23:50.680Z,98900.00
2022-11-25T04:25:24.025Z,98906.00
2022-11-25T04:26:58.168Z,98917.00
2022-11-25T04:28:32.113Z,98927.00
2022-11-25T04:30:07.176Z,98928.00
2022-11-25T04:31:44.676Z,98906.00
2022-11-25T04:33:16.922Z,98902.00
2022-11-25T04:34:51.653Z,98920.00
2022-11-25T04:36:24.536Z,98920.00
2022-11-25T04:37:58.749Z,98905.00
2022-11-25T04:39:32.650Z,98918.00
2022-11-25T04:41:11.476Z,98918.00
2022-11-25T04:42:47.762Z,98917.00
2022-11-25T04:44:22.434Z,98914.00
2022-11-25T04:46:13.459Z,98921.00
2022-11-25T04:47:50.007Z,98927.00
2022-11-25T04:49:23.170Z,98917.00
2022-11-25T04:50:55.697Z,98920.00
2022-11-25T04:52:29.154Z,98919.00
2022-11-25T04:54:02.290Z,98920.00
2022-11-25T04:55:37.219Z,98918.00
2022-11-25T04:57:16.677Z,98919.00
2022-11-25T04:59:09.605Z,98924.00
2022-11-25T05:00:46.608Z,98919.00
2022-11-25T05:02:25.105Z,98925.00
2022-11-25T05:04:05.781Z,98922.00
2022-11-25T05:05:40.293Z,98929.00
2022-11-25T05:07:15.736Z,98938.00
2022-11-25T05:08:51.013Z,98929.00
2022-11-25T05:10:24.765Z,98927.00
2022-11-25T05:11:56.999Z,98928.00
2022-11-25T05:13:30.248Z,98926.00
2022-11-25T05:15:05.581Z,98926.00
2022-11-25T05:16:41.044Z,98924.00
2022-11-25T05:18:15.721Z,98931.00
2022-11-25T05:19:53.615Z,98940.00
2022-11-25T05:21:26.608Z,98928.00
2022-11-25T05:23:00.419Z,98930.00
2022-11-25T05:24:33.881Z,98936.00
2022-11-25T05:26:07.181Z,98935.00
2022-11-25T05:27:45.796Z,98945.00
2022-11-25T05:29:20.914Z,98934.00
2022-11-25T05:30:54.369Z,98935.00
2022-11-25T05:32:27.640Z,98944.00
2022-11-25T05:34:04.650Z,98950.00
2022-11-25T05:35:39.091Z,98946.00
2022-11-25T05:37:17.725Z,98950.00
2022-11-25T05:39:01.607Z,98947.00
2022-11-25T05:40:51.873Z,98943.00
2022-11-25T05:42:25.133Z,98948.00
2022-11-25T05:43:59.279Z,98946.00
2022-11-25T05:45:31.590Z,98947.00
2022-11-25T05:47:05.358Z,98942.00
2022-11-25T05:48:39.201Z,98947.00
2022-11-25T05:50:12.912Z,98953.00
2022-11-25T05:51:48.852Z,98951.00
2022-11-25T05:53:22.477Z,98948.00
2022-11-25T05:54:58.178Z,98954.00
2022-11-25T05:56:32.789Z,98950.00
2022-11-25T05:58:26.606Z,98961.00
2022-11-25T06:00:01.798Z,98955.00
2022-11-25T06:01:55.345Z,98966.00
2022-11-25T06:03:30.251Z,98947.00
2022-11-25T06:05:03.487Z,98958.00
2022-11-25T06:06:36.905Z,98958.00
2022-11-25T06:08:11.955Z,98959.00
2022-11-25T06:09:45.329Z,98973.00
2022-11-25T06:11:19.404Z,98968.00
2022-11-25T06:12:55.428Z,98961.00
2022-11-25T06:14:28.668Z,98981.00
2022-11-25T06:16:08.104Z,98970.00
2022-11-25T06:17:41.532Z,98964.00
2022-11-25T06:19:19.810Z,98971.00
2022-11-25T06:20:58.768Z,98972.00
2022-11-25T06:22:31.974Z,98979.00
2022-11-25T06:24:07.755Z,98977.00
2022-11-25T06:25:41.072Z,98977.00
2022-11-25T06:27:14.426Z,98983.00
2022-11-25T06:28:48.800Z,98983.00
2022-11-25T06:30:21.478Z,98987.00
2022-11-25T06:32:07.710Z,98977.00
2022-11-25T06:33:50.388Z,98986.00
2022-11-25T06:35:23.793Z,98983.00
2022-11-25T06:37:01.332Z,98985.00
2022-11-25T06:38:34.898Z,98986.00
2022-11-25T06:40:11.353Z,98989.00
2022-11-25T06:41:45.343Z,98995.00
2022-11-25T06:43:21.513Z,98991.00
2022-11-25T06:44:54.823Z,98992.00
2022-11-25T06:46:29.237Z,98999.00
2022-11-25T06:48:02.443Z,98995.00
2022-11-25T06:49:35.618Z,99002.00
2022-11-25T06:51:12.245Z,99008.00
2022-11-25T06:52:45.397Z,99016.00
2022-11-25T06:54:18.853Z,99016.00
2022-11-25T06:56:07.017Z,99019.00
2022-11-25T06:57:40.241Z,99028.00
2022-11-25T06:59:13.364Z,99030.00
2022-11-25T07:00:46.457Z,99022.00
2022-11-25T07:02:19.739Z,99024.00
2022-11-25T07:03:56.061Z,99029.00
2022-11-25T07:05:29.232Z,99026.00
2022-11-25T07:07:02.464Z,99029.00
2022-11-25T07:08:35.648Z,99039.00
2022-11-25T07:10:10.317Z,99043.00
2022-11-25T07:11:44.782Z,99042.00
2022-11-25T07:13:18.160Z,99043.00
2022-11-25T07:14:52.099Z,99039.00
2022-11-25T07:16:26.186Z,99039.00
2022-11-25T07:17:59.315Z,99050.00
2022-11-25T07:19:35.481Z,99043.00
2022-11-25T07:21:12.068Z,99048.00
2022-11-25T07:22:48.424Z,99057.00
2022-11-25T07:24:21.534Z,99053.00
2022-11-25T07:25:54.698Z,99052.00
2022-11-25T07:27:29.213Z,99051.00
2022-11-25T07:29:13.942Z,99047.00
2022-11-25T07:32:50.310Z,99063.00
2022-11-25T07:34:23.815Z,99062.00
2022-11-25T07:35:58.685Z,99065.00
2022-11-25T07:37:31.948Z,99061.00
2022-11-25T07:39:09.676Z,99067.00
2022-11-25T07:40:42.790Z,99069.00
2022-11-25T07:42:16.020Z,99065.00
2022-11-25T07:43:53.104Z,99069.00
2022-11-25T07:45:29.094Z,99067.00
2022-11-25T07:47:13.178Z,99085.00
2022-11-25T07:48:47.500Z,99081.00
2022-11-25T07:50:21.449Z,99082.00
2022-11-25T07:51:57.668Z,99088.00
2022-11-25T07:53:30.998Z,99086.00
2022-11-25T07:55:04.404Z,99084.00
2022-11-25T07:56:40.558Z,99085.00
2022-11-25T07:58:13.836Z,99082.00
2022-11-25T07:59:48.469Z,99079.00
2022-11-25T08:01:23.368Z,99090.00
2022-11-25T08:02:56.522Z,99090.00
2022-11-25T08:04:29.866Z,99089.00
2022-11-25T08:06:03.988Z,99088.00
2022-11-25T08:07:37.223Z,99101.00
2022-11-25T08:09:12.926Z,99088.00
2022-11-25T08:10:46.123Z,99101.00
2022-11-25T08:12:19.296Z,99105.00
2022-11-25T08:13:53.070Z,99099.00
2022-11-25T08:15:28.122Z,99100.00
2022-11-25T08:17:01.289Z,99115.00
2022-11-25T08:18:34.688Z,99114.00
2022-11-25T08:20:09.740Z,99118.00
2022-11-25T08:21:43.368Z,99115.00
2022-11-25T08:23:16.600Z,99130.00
2022-11-25T08:24:49.748Z,99107.00
2022-11-25T08:26:26.658Z,99124.00
2022-11-25T08:28:01.032Z,99119.00
2022-11-25T08:29:34.328Z,99122.00
2022-11-25T08:31:11.597Z,99126.00
2022-11-25T08:32:44.861Z,99128.00
2022-11-25T08:34:22.238Z,99131.00
2022-11-25T08:35:57.970Z,99131.00
2022-11-25T08:37:32.234Z,99135.00
2022-11-25T08:39:28.904Z,99140.00
2022-11-25T08:41:02.175Z,99143.00
2022-11-25T08:42:35.362Z,99142.00
2022-11-25T08:44:09.953Z,99137.00
2022-11-25T08:45:43.128Z,99147.00
2022-11-25T08:47:17.606Z,99157.00
2022-11-25T08:48:51.274Z,99152.00
2022-11-25T08:50:25.455Z,99153.00
2022-11-25T08:51:58.641Z,99163.00
2022-11-25T08:53:31.821Z,99153.00
2022-11-25T08:55:06.157Z,99153.00
2022-11-25T08:56:39.417Z,99149.00
2022-11-25T08:58:13.141Z,99147.00
2022-11-25T08:59:46.593Z,99156.00
2022-11-25T09:01:21.492Z,99156.00
2022-11-25T09:02:55.940Z,99159.00
2022-11-25T09:04:29.457Z,99164.00
2022-11-25T09:06:03.984Z,99158.00
2022-11-25T09:07:38.154Z,99173.00
2022-11-25T09:09:11.638Z,99162.00
2022-11-25T09:10:45.359Z,99168.00
2022-11-25T09:12:18.729Z,99168.00
2022-11-25T09:13:52.014Z,99165.00
2022-11-25T09:15:25.448Z,99165.00
2022-11-25T09:16:58.719Z,99162.00
2022-11-25T09:18:35.196Z,99171.00
2022-11-25T09:20:09.711Z,99175.00
2022-11-25T09:21:44.913Z,99176.00
2022-11-25T09:23:19.175Z,99174.00
2022-11-25T09:24:52.808Z,99170.00
2022-11-25T09:26:30.113Z,99180.00
2022-11-25T09:28:04.017Z,99187.00
2022-11-25T09:29:37.509Z,99194.00
2022-11-25T09:31:11.280Z,99191.00
2022-11-25T09:32:45.205Z,99193.00
2022-11-25T09:34:19.702Z,99191.00
2022-11-25T09:35:53.064Z,99196.00
2022-11-25T09:37:26.265Z,99199.00
2022-11-25T09:38:59.408Z,99200.00
2022-11-25T09:40:43.640Z,99201.00
2022-11-25T09:42:53.157Z,99200.00
2022-11-25T09:44:56.133Z,99202.00
2022-11-25T09:46:52.330Z,99201.00
2022-11-25T09:48:49.689Z,99205.00
2022-11-25T09:50:43.968Z,99198.00
2022-11-25T09:52:28.725Z,99189.00
2022-11-25T09:54:13.976Z,99205.00
2022-11-25T09:55:51.362Z,99208.00
2022-11-25T09:57:34.149Z,99202.00
2022-11-25T09:59:15.970Z,99215.00
2022-11-25T10:00:52.716Z,99204.00
2022-11-25T10:02:36.651Z,99212.00
2022-11-25T10:04:18.741Z,99214.00
2022-11-25T10:06:04.280Z,99220.00
2022-11-25T10:07:43.538Z,99230.00
2022-11-25T10:09:23.374Z,99232.00
2022-11-25T10:11:04.312Z,99225.00
2022-11-25T10:12:45.738Z,99231.00
2022-11-25T10:14:33.865Z,99234.00
2022-11-25T10:16:20.671Z,99239.00
2022-11-25T10:18:00.983Z,99239.00
2022-11-25T10:19:51.913Z,99238.00
2022-11-25T10:21:27.126Z,99236.00
2022-11-25T10:23:05.448Z,99239.00
2022-11-25T10:24:41.398Z,99237.00
2022-11-25T10:26:18.504Z,99246.00
2022-11-25T10:27:59.058Z,99242.00
2022-11-25T10:29:34.020Z,99241.00
2022-11-25T10:31:16.813Z,99237.00
2022-11-25T10:33:00.803Z,99244.00
2022-11-25T10:34:45.562Z,99239.00
2022-11-25T10:36:24.158Z,99235.00
2022-11-25T10:38:02.706Z,99243.00
2022-11-25T10:39:36.457Z,99240.00
2022-11-25T10:41:16.697Z,99235.00
2022-11-25T10:42:49.996Z,99242.00
2022-11-25T10:44:29.498Z,99257.00
2022-11-25T10:46:18.817Z,99245.00
2022-11-25T10:48:18.900Z,99255.00
2022-11-25T10:50:09.428Z,99250.00
2022-11-25T10:51:48.914Z,99254.00
2022-11-25T10:53:29.930Z,99260.00
2022-11-25T10:55:13.869Z,99261.00
2022-11-25T10:56:53.054Z,99255.00
2022-11-25T10:58:34.465Z,99264.00
2022-11-25T11:00:25.944Z,99266.00
2022-11-25T11:02:23.016Z,99258.00
2022-11-25T11:04:07.348Z,99263.00
2022-11-25T11:05:48.780Z,99259.00
2022-11-25T11:07:23.228Z,99268.00
2022-11-25T11:08:58.090Z,99268.00
2022-11-25T11:10:31.332Z,99267.00
2022-11-25T11:12:16.580Z,99269.00
2022-11-25T11:13:58.648Z,99276.00
2022-11-25T11:15:45.069Z,99274.00
2022-11-25T11:17:36.286Z,99279.00
2022-11-25T11:19:23.985Z,99289.00
2022-11-25T11:21:00.201Z,99289.00
2022-11-25T11:22:34.969Z,99291.00
2022-11-25T11:24:29.807Z,99287.00
2022-11-25T11:26:06.276Z,99287.00
2022-11-25T11:27:39.982Z,99284.00
2022-11-25T11:29:19.414Z,99296.00
2022-11-25T11:30:59.453Z,99290.00
2022-11-25T11:32:32.852Z,99287.00
2022-11-25T11:34:43.455Z,99294.00
2022-11-25T11:36:38.309Z,99294.00
2022-11-25T11:38:30.595Z,99304.00
2022-11-25T11:40:32.961Z,99307.00
2022-11-25T11:42:18.148Z,99306.00
2022-11-25T11:44:10.005Z,99299.00
2022-11-25T11:46:01.202Z,99314.00
2022-11-25T11:47:50.564Z,99300.00
2022-11-25T11:49:54.764Z,99314.00
2022-11-25T11:51:37.643Z,99312.00
2022-11-25T11:53:21.836Z,99314.00
2022-11-25T11:55:02.780Z,99310.00
2022-11-25T11:56:42.746Z,99308.00
2022-11-25T11:58:35.236Z,99312.00
2022-11-25T12:00:14.904Z,99313.00
2022-11-25T12:02:12.564Z,99310.00
2022-11-25T12:03:58.675Z,99317.00
2022-11-25T12:05:37.294Z,99323.00
2022-11-25T12:07:21.584Z,99316.00
2022-11-25T12:09:02.402Z,99312.00
2022-11-25T12:10:41.086Z,99307.00
2022-11-25T12:12:20.141Z,99311.00
2022-11-25T12:14:03.267Z,99310.00
2022-11-25T12:15:47.615Z,99312.00
2022-11-25T12:17:32.059Z,99309.00
2022-11-25T12:19:15.996Z,99316.00
2022-11-25T12:20:58.599Z,99320.00
2022-11-25T12:22:38.943Z,99322.00
2022-11-25T12:24:22.873Z,99330.00
2022-11-25T12:26:03.960Z,99325.00
2022-11-25T12:27:43.423Z,99323.00
2022-11-25T12:29:36.983Z,99334.00
2022-11-25T12:31:19.989Z,99338.00
2022-11-25T12:33:06.828Z,99337.00
2022-11-25T12:34:51.431Z,99338.00
2022-11-25T12:36:34.993Z,99345.00
2022-11-25T12:38:31.501Z,99340.00
2022-11-25T12:40:14.862Z,99336.00
2022-11-25T12:41:55.106Z,99349.00
2022-11-25T12:43:42.193Z,99343.00
2022-11-25T12:45:23.915Z,99344.00
2022-11-25T12:46:58.769Z,99355.00
2022-11-25T12:48:33.247Z,99356.00
2022-11-25T12:50:15.180Z,99360.00
2022-11-25T12:52:12.764Z,99362.00
2022-11-25T12:54:04.373Z,99362.00
2022-11-25T12:55:41.343Z,99367.00
2022-11-25T12:58:04.758Z,99373.00
2022-11-25T13:00:39.306Z,99371.00
2022-11-25T13:02:27.679Z,99365.00
2022-11-25T13:04:53.953Z,99378.00
2022-11-25T13:06:53.934Z,99374.00
2022-11-25T13:08:48.985Z,99372.00
2022-11-25T13:10:56.515Z,99379.00
2022-11-25T13:12:44.746Z,99387.00
2022-11-25T13:14:28.150Z,99391.00
2022-11-25T13:16:08.517Z,99399.00
2022-11-25T13:17:44.746Z,99400.00
2022-11-25T13:19:19.335Z,99403.00
2022-11-25T13:20:54.635Z,99407.00
2022-11-25T13:22:29.722Z,99410.00
2022-11-25T13:24:03.356Z,99401.00
2022-11-25T13:25:38.481Z,99410.00
2022-11-25T13:27:31.931Z,99398.00
2022-11-25T13:30:02.318Z,99406.00
2022-11-25T13:31:59.737Z,99406.00
2022-11-25T13:34:07.504Z,99411.00
2022-11-25T13:35:53.997Z,99412.00
2022-11-25T13:37:39.888Z,99410.00
2022-11-25T13:39:17.764Z,99411.00
2022-11-25T13:40:59.071Z,99416.00
2022-11-25T13:42:32.449Z,99411.00
2022-11-25T13:44:13.686Z,99420.00
2022-11-25T13:45:47.079Z,99426.00
2022-11-25T13:47:36.157Z,99422.00
2022-11-25T13:49:28.185Z,99434.00
2022-11-25T13:51:24.449Z,99426.00
2022-11-25T13:53:02.711Z,99428.00
2022-11-25T13:54:44.607Z,99443.00
2022-11-25T13:56:29.841Z,99446.00
2022-11-25T13:58:24.177Z,99445.00
2022-11-25T14:00:00.973Z,99453.00
2022-11-25T14:01:34.276Z,99453.00
2022-11-25T14:03:52.808Z,99456.00
2022-11-25T14:06:01.636Z,99454.00
2022-11-25T14:07:45.489Z,99450.00
2022-11-25T14:09:36.124Z,99456.00
2022-11-25T14:11:48.475Z,99451.00
2022-11-25T14:14:02.514Z,99459.00
2022-11-25T14:16:07.193Z,99458.00
2022-11-25T14:19:03.180Z,99468.00
2022-11-25T14:20:46.104Z,99468.00
2022-11-25T14:22:39.936Z,99470.00
2022-11-25T14:24:29.852Z,99473.00
2022-11-25T14:26:21.072Z,99475.00
2022-11-25T14:28:21.936Z,99472.00
2022-11-25T14:30:01.575Z,99473.00
2022-11-25T14:31:44.260Z,99468.00
2022-11-25T14:33:23.883Z,99487.00
2022-11-25T14:35:04.786Z,99481.00
2022-11-25T14:36:45.577Z,99491.00
2022-11-25T14:38:24.264Z,99494.00
2022-11-25T14:40:04.785Z,99489.00
2022-11-25T14:41:44.015Z,99496.00
2022-11-25T14:43:24.242Z,99492.00
2022-11-25T14:44:59.226Z,99499.00
2022-11-25T14:46:32.758Z,99494.00
2022-11-25T14:48:17.240Z,99491.00
2022-11-25T14:50:11.832Z,99490.00
2022-11-25T14:51:51.205Z,99493.00
2022-11-25T14:53:25.551Z,99501.00
2022-11-25T14:55:01.747Z,99514.00
2022-11-25T14:56:37.955Z,99509.00
2022-11-25T14:58:14.051Z,99513.00
2022-11-25T14:59:47.801Z,99510.00
2022-11-25T15:01:24.967Z,99508.00
2022-11-25T15:03:00.890Z,99511.00
2022-11-25T15:04:34.728Z,99510.00
2022-11-25T15:06:13.673Z,99517.00
2022-11-25T15:08:03.916Z,99522.00
2022-11-25T15:09:42.981Z,99521.00
2022-11-25T15:11:20.035Z,99510.00
2022-11-25T15:12:53.928Z,99519.00
2022-11-25T15:14:30.501Z,99526.00
2022-11-25T15:16:11.433Z,99527.00
2022-11-25T15:17:44.759Z,99531.00
2022-11-25T15:19:21.538Z,99528.00
2022-11-25T15:20:59.769Z,99533.00
2022-11-25T15:22:33.124Z,99530.00
2022-11-25T15:24:23.544Z,99540.00
2022-11-25T15:25:57.695Z,99535.00
2022-11-25T15:27:33.300Z,99543.00
2022-11-25T15:29:14.434Z,99543.00
2022-11-25T15:30:58.493Z,99546.00
2022-11-25T15:32:37.864Z,99546.00
2022-11-25T15:34:14.462Z,99551.00
2022-11-25T15:35:49.154Z,99549.00
2022-11-25T15:37:23.907Z,99552.00
2022-11-25T15:39:16.571Z,99552.00
2022-11-25T15:40:57.179Z,99554.00
2022-11-25T15:42:30.274Z,99562.00
2022-11-25T15:44:07.134Z,99570.00
2022-11-25T15:45:47.806Z,99564.00
2022-11-25T15:47:26.346Z,99574.00
2022-11-25T15:49:04.018Z,99580.00
2022-11-25T15:50:41.519Z,99579.00
2022-11-25T15:52:20.471Z,99580.00
2022-11-25T15:53:56.578Z,99582.00
2022-11-25T15:55:36.628Z,99592.00
2022-11-25T15:57:19.941Z,99593.00
2022-11-25T15:58:57.277Z,99588.00
2022-11-25T16:00:33.429Z,99597.00
2022-11-25T16:02:39.570Z,99592.00
2022-11-25T16:04:22.183Z,99605.00
2022-11-25T16:05:57.253Z,99608.00
2022-11-25T16:07:30.543Z,99611.00
2022-11-25T16:09:21.465Z,99609.00
2022-11-25T16:11:00.260Z,99605.00
2022-11-25T16:12:33.485Z,99618.00
2022-11-25T16:14:24.988Z,99614.00
2022-11-25T16:16:09.895Z,99625.00
2022-11-25T16:17:43.381Z,99618.00
2022-11-25T16:19:21.914Z,99625.00
2022-11-25T16:20:59.165Z,99621.00
2022-11-25T16:22:32.405Z,99629.00
2022-11-25T16:24:27.557Z,99628.00
2022-11-25T16:26:06.855Z,99631.00
2022-11-25T16:27:40.483Z,99632.00
2022-11-25T16:29:18.897Z,99635.00
2022-11-25T16:30:57.862Z,99633.00
2022-11-25T16:32:34.406Z,99630.00
2022-11-25T16:34:16.443Z,99642.00
2022-11-25T16:35:49.777Z,99635.00
2022-11-25T16:37:23.670Z,99644.00
2022-11-25T16:39:00.024Z,99649.00
2022-11-25T16:40:37.821Z,99651.00
2022-11-25T16:42:21.160Z,99650.00
2022-11-25T16:43:59.323Z,99665.00
2022-11-25T16:45:33.818Z,99658.00
2022-11-25T16:47:10.608Z,99660.00
2022-11-25T16:48:45.041Z,99657.00
2022-11-25T16:50:20.836Z,99660.00
2022-11-25T16:51:54.556Z,99662.00
2022-11-25T16:53:27.893Z,99670.00
2022-11-25T16:55:01.247Z,99669.00
2022-11-25T16:56:38.518Z,99669.00
2022-11-25T16:58:20.423Z,99681.00
2022-11-25T16:59:58.722Z,99673.00
2022-11-25T17:01:34.685Z,99681.00
2022-11-25T17:03:13.475Z,99683.00
2022-11-25T17:04:47.799Z,99691.00
2022-11-25T17:06:23.858Z,99694.00
2022-11-25T17:07:57.262Z,99697.00
2022-11-25T17:09:32.249Z,99690.00
2022-11-25T17:11:12.654Z,99697.00
2022-11-25T17:12:47.657Z,99703.00
2022-11-25T17:14:32.142Z,99699.00
2022-11-25T17:16:16.394Z,99696.00
2022-11-25T17:17:50.590Z,99700.00
2022-11-25T17:19:24.422Z,99701.00
2022-11-25T17:20:57.797Z,99694.00
2022-11-25T17:22:38.916Z,99710.00
2022-11-25T17:24:23.276Z,99715.00
2022-11-25T17:25:56.586Z,99713.00
2022-11-25T17:27:33.052Z,99717.00
2022-11-25T17:29:14.114Z,99709.00
2022-11-25T17:30:55.068Z,99724.00
2022-11-25T17:32:28.893Z,99728.00
2022-11-25T17:34:02.231Z,99728.00
2022-11-25T17:35:36.601Z,99734.00
2022-11-25T17:37:16.119Z,99727.00
2022-11-25T17:38:49.386Z,99734.00
2022-11-25T17:40:22.700Z,99741.00
2022-11-25T17:41:56.028Z,99742.00
2022-11-25T17:43:34.351Z,99738.00
2022-11-25T17:45:13.980Z,99749.00
2022-11-25T17:46:48.799Z,99750.00
2022-11-25T17:48:21.905Z,99749.00
2022-11-25T17:49:55.554Z,99747.00
2022-11-25T17:51:28.961Z,99757.00
2022-11-25T17:53:02.091Z,99752.00
2022-11-25T17:54:36.088Z,99770.00
2022-11-25T17:56:24.733Z,99756.00
2022-11-25T17:57:57.946Z,99774.00
2022-11-25T17:59:34.489Z,99774.00
2022-11-25T18:01:10.430Z,99778.00
2022-11-25T18:02:45.404Z,99779.00
2022-11-25T18:04:24.498Z,99779.00
2022-11-25T18:05:57.628Z,99783.00
2022-11-25T18:07:30.838Z,99787.00
2022-11-25T18:09:04.361Z,99791.00
2022-11-25T18:10:38.989Z,99795.00
2022-11-25T18:12:19.556Z,99796.00
2022-11-25T18:13:52.847Z,99796.00
2022-11-25T18:15:30.754Z,99793.00
2022-11-25T18:17:08.407Z,99798.00
2022-11-25T18:18:43.021Z,99802.00
2022-11-25T18:20:18.999Z,99804.00
2022-11-25T18:21:52.561Z,99800.00
2022-11-25T18:23:25.960Z,99805.00
2022-11-25T18:25:02.198Z,99810.00
2022-11-25T18:26:54.109Z,99810.00
2022-11-25T18:28:31.419Z,99809.00
2022-11-25T18:30:07.250Z,99820.00
2022-11-25T18:31:41.012Z,99822.00
2022-11-25T18:33:16.132Z,99819.00
2022-11-25T18:34:49.298Z,99826.00
2022-11-25T18:36:22.641Z,99834.00
2022-11-25T18:37:56.780Z,99833.00
2022-11-25T18:39:30.110Z,99833.00
2022-11-25T18:41:03.842Z,99831.00
2022-11-25T18:42:38.672Z,99830.00
2022-11-25T18:44:26.143Z,99832.00
2022-11-25T18:46:00.759Z,99843.00
2022-11-25T18:47:34.391Z,99835.00
2022-11-25T18:49:13.540Z,99843.00
2022-11-25T18:50:48.715Z,99853.00
2022-11-25T18:52:21.945Z,99847.00
2022-11-25T18:53:55.235Z,99860.00
2022-11-25T18:55:28.882Z,99861.00
2022-11-25T18:57:02.348Z,99854.00
2022-11-25T18:58:37.516Z,99861.00
2022-11-25T19:00:32.119Z,99862.00
2022-11-25T19:02:16.912Z,99867.00
2022-11-25T19:03:51.084Z,99876.00
2022-11-25T19:05:27.278Z,99874.00
2022-11-25T19:07:00.437Z,99887.00
2022-11-25T19:08:33.765Z,99886.00
2022-11-25T19:10:13.560Z,99876.00
2022-11-25T19:11:52.824Z,99882.00
2022-11-25T19:13:31.582Z,99876.00
2022-11-25T19:15:08.164Z,99892.00
2022-11-25T19:16:42.288Z,99894.00
2022-11-25T19:18:23.979Z,99895.00
2022-11-25T19:19:57.214Z,99900.00